Time;durP1;ratioP1;P1;durP2;ratioP2;P2;SDS_P1;SDS_P2;PMS_P1;PMS_P2;Temp;Humidity;BMP_temperature;BMP_pressure;BME280_temperature;BME280_humidity;BME280_pressure;Samples;Min_cycle;Max_cycle;Signal;HPM_P1;HPM_P2
2021/03/18 00:00:57;;;;;;;23.37;7.10;;;;;;;2.97;66.29;98807.17;1812300;78;21095;-62
2021/03/18 00:03:28;;;;;;;14.70;6.03;;;;;;;2.97;66.33;98804.51;1810063;78;21183;-62
2021/03/18 00:05:56;;;;;;;15.17;5.37;;;;;;;2.98;66.34;98811.53;1808865;78;21162;-62
2021/03/18 00:08:24;;;;;;;18.53;6.37;;;;;;;2.95;66.45;98808.54;1809683;78;21196;-62
2021/03/18 00:10:51;;;;;;;15.07;5.77;;;;;;;2.91;66.53;98802.90;1809598;78;21136;-62
2021/03/18 00:13:23;;;;;;;15.10;6.00;;;;;;;2.91;66.60;98808.22;1810404;78;21856;-61
2021/03/18 00:15:50;;;;;;;16.37;5.47;;;;;;;2.89;66.69;98806.55;1810878;77;21205;-62
2021/03/18 00:18:19;;;;;;;15.70;5.60;;;;;;;2.85;66.70;98811.08;1810209;77;21190;-62
2021/03/18 00:20:46;;;;;;;19.83;5.63;;;;;;;2.85;66.81;98809.75;1788908;78;22238;-60
2021/03/18 00:23:15;;;;;;;18.43;5.77;;;;;;;2.84;66.84;98810.66;1813402;78;21207;-60
2021/03/18 00:25:42;;;;;;;16.13;5.30;;;;;;;2.82;66.92;98807.64;1786758;79;21219;-59
2021/03/18 00:28:09;;;;;;;12.40;4.83;;;;;;;2.80;67.03;98808.17;1785747;79;21916;-58
2021/03/18 00:30:40;;;;;;;16.37;5.57;;;;;;;2.77;67.04;98809.59;1787597;78;21199;-60
2021/03/18 00:33:08;;;;;;;14.27;5.23;;;;;;;2.73;67.11;98803.48;1787333;79;22137;-63
2021/03/18 00:35:35;;;;;;;14.93;5.10;;;;;;;2.69;67.24;98801.86;1813909;78;21607;-60
2021/03/18 00:38:03;;;;;;;13.97;4.07;;;;;;;2.69;67.26;98800.98;1789806;79;21210;-61
2021/03/18 00:40:34;;;;;;;12.23;3.90;;;;;;;2.70;67.36;98805.39;1815235;78;21162;-62
2021/03/18 00:43:12;;;;;;;11.37;3.63;;;;;;;2.72;67.34;98798.25;1810916;78;21244;-59
2021/03/18 00:45:41;;;;;;;11.93;3.73;;;;;;;2.72;67.25;98799.58;1816391;78;21340;-59
2021/03/18 00:48:09;;;;;;;17.53;3.47;;;;;;;2.71;67.29;98804.02;1816857;78;21182;-60
2021/03/18 00:50:46;;;;;;;7.47;2.90;;;;;;;2.69;67.24;98800.53;1787679;79;21218;-59
2021/03/18 00:53:20;;;;;;;15.30;3.03;;;;;;;2.70;67.29;98795.63;1808542;78;21202;-60
2021/03/18 00:55:49;;;;;;;14.00;2.53;;;;;;;2.69;67.25;98800.53;1811397;78;21134;-61
2021/03/18 00:58:20;;;;;;;7.47;2.67;;;;;;;2.69;67.23;98801.86;1809064;78;22678;-61
2021/03/18 01:00:50;;;;;;;14.47;2.87;;;;;;;2.69;67.25;98803.19;1811165;78;21640;-62
2021/03/18 01:03:24;;;;;;;8.67;1.60;;;;;;;2.69;67.28;98797.88;1815484;78;21158;-59
2021/03/18 01:06:20;;;;;;;9.60;2.33;;;;;;;2.71;67.09;98801.36;1814392;78;21588;-59
2021/03/18 01:08:51;;;;;;;17.67;1.97;;;;;;;2.70;67.06;98801.41;1804275;78;21191;-60
2021/03/18 01:11:21;;;;;;;10.67;2.00;;;;;;;2.70;67.02;98803.61;1767459;78;22142;-63
2021/03/18 01:13:55;;;;;;;8.77;1.93;;;;;;;2.70;66.97;98791.65;1780027;79;21138;-58
2021/03/18 01:16:33;;;;;;;8.38;1.72;;;;;;;2.71;66.80;98790.73;1790561;78;21219;-60
2021/03/18 01:19:03;;;;;;;19.23;3.57;;;;;;;2.71;66.71;98790.73;1784042;79;21147;-59
2021/03/18 01:21:56;;;;;;;8.43;2.03;;;;;;;2.70;66.60;98789.45;1791086;79;21184;-60
2021/03/18 01:24:25;;;;;;;6.90;2.25;;;;;;;2.69;66.53;98791.69;1806505;78;21009;-59
2021/03/18 01:26:52;;;;;;;9.37;3.03;;;;;;;2.70;66.53;98785.46;1815194;78;21894;-59
2021/03/18 01:29:19;;;;;;;11.00;1.77;;;;;;;2.71;66.43;98788.08;1806943;78;21158;-58
2021/03/18 01:31:47;;;;;;;9.87;2.13;;;;;;;2.72;66.18;98785.83;1794175;79;21341;-59
2021/03/18 01:34:14;;;;;;;16.97;2.13;;;;;;;2.71;66.25;98786.75;1753011;79;21179;-59
2021/03/18 01:36:41;;;;;;;15.60;3.10;;;;;;;2.72;66.07;98787.62;1815093;78;21392;-59
2021/03/18 01:39:09;;;;;;;12.50;2.37;;;;;;;2.73;66.08;98784.88;1810917;78;21534;-60
2021/03/18 01:41:36;;;;;;;11.13;2.00;;;;;;;2.75;66.07;98788.38;1786378;79;21171;-63
2021/03/18 01:44:04;;;;;;;11.67;1.87;;;;;;;2.77;66.01;98779.89;1816046;77;21154;-59
2021/03/18 01:46:34;;;;;;;13.17;2.77;;;;;;;2.80;65.95;98783.80;1790532;79;21195;-60
2021/03/18 01:49:05;;;;;;;8.53;2.13;;;;;;;2.81;65.78;98790.82;1808526;77;22271;-59
2021/03/18 01:51:33;;;;;;;14.23;1.63;;;;;;;2.80;65.71;98788.24;1817077;78;21174;-61
2021/03/18 01:54:00;;;;;;;12.33;1.80;;;;;;;2.80;65.65;98793.09;1790306;79;21589;-59
2021/03/18 01:56:27;;;;;;;8.03;1.87;;;;;;;2.81;65.75;98787.29;1810261;78;21968;-59
2021/03/18 01:58:54;;;;;;;10.93;2.03;;;;;;;2.82;65.80;98789.91;1787426;79;21196;-59
2021/03/18 02:01:22;;;;;;;11.90;2.77;;;;;;;2.84;65.84;98796.51;1812696;77;21446;-61
2021/03/18 02:03:50;;;;;;;10.20;3.53;;;;;;;2.82;65.98;98789.03;1809507;77;22200;-63
2021/03/18 02:06:18;;;;;;;10.93;2.40;;;;;;;2.80;66.09;98790.90;1813663;77;21178;-58
2021/03/18 02:08:46;;;;;;;10.33;1.93;;;;;;;2.80;66.12;98793.55;1786816;79;21167;-62
2021/03/18 02:11:13;;;;;;;11.10;2.10;;;;;;;2.77;66.11;98797.17;1811131;78;21708;-58
2021/03/18 02:13:42;;;;;;;9.37;2.40;;;;;;;2.72;66.06;98790.27;1783563;78;22430;-59
2021/03/18 02:16:11;;;;;;;13.53;2.50;;;;;;;2.67;66.09;98790.41;1788550;79;21254;-62
2021/03/18 02:19:04;;;;;;;15.83;2.17;;;;;;;2.66;66.18;98788.20;1785732;79;21123;-59
2021/03/18 02:21:54;;;;;;;11.73;2.07;;;;;;;2.64;66.10;98790.48;1787218;79;21225;-58
2021/03/18 02:24:56;;;;;;;10.03;2.47;;;;;;;2.61;66.14;98794.59;1808282;78;21900;-58
2021/03/18 02:28:05;;;;;;;4.87;1.43;;;;;;;2.58;65.90;98797.33;1808997;78;21213;-59
2021/03/18 02:32:40;;;;;;;8.43;1.97;;;;;;;2.60;65.82;98795.51;1865793;75;26544;-59
2021/03/18 02:35:37;;;;;;;10.67;2.10;;;;;;;2.56;65.82;98800.48;1841185;77;21115;-58
2021/03/18 02:38:15;;;;;;;8.07;1.30;;;;;;;2.57;65.67;98800.45;1834920;77;21876;-59
2021/03/18 02:40:50;;;;;;;9.43;1.40;;;;;;;2.56;65.66;98800.03;1836166;77;21004;-61
2021/03/18 02:43:17;;;;;;;8.03;1.30;;;;;;;2.54;65.64;98797.91;1839772;77;21211;-59
2021/03/18 02:45:51;;;;;;;10.00;1.10;;;;;;;2.54;65.65;98803.22;1804891;78;21237;-60
2021/03/18 02:48:23;;;;;;;14.07;2.10;;;;;;;2.53;65.54;98805.46;1776755;78;21640;-58
2021/03/18 02:50:54;;;;;;;10.73;1.87;;;;;;;2.53;65.60;98805.46;1780154;78;21199;-59
2021/03/18 02:53:27;;;;;;;8.10;1.83;;;;;;;2.52;65.68;98808.16;1789344;78;21054;-57
2021/03/18 02:55:55;;;;;;;9.83;1.97;;;;;;;2.51;65.68;98809.95;1800811;78;20989;-57
2021/03/18 02:58:27;;;;;;;7.40;1.60;;;;;;;2.51;65.70;98810.40;1784400;78;21155;-62
2021/03/18 03:00:55;;;;;;;7.27;1.70;;;;;;;2.50;65.67;98808.66;1783442;78;21931;-61
2021/03/18 03:03:25;;;;;;;8.67;2.33;;;;;;;2.49;65.76;98808.24;1781829;78;22189;-61
2021/03/18 03:05:54;;;;;;;6.67;2.10;;;;;;;2.47;65.73;98810.06;1778458;80;21146;-61
2021/03/18 03:08:22;;;;;;;8.67;1.70;;;;;;;2.47;65.73;98811.39;1755394;78;21130;-60
2021/03/18 03:10:57;;;;;;;10.63;2.27;;;;;;;2.46;65.80;98813.22;1804864;78;21514;-60
2021/03/18 03:13:27;;;;;;;7.43;1.60;;;;;;;2.44;65.88;98816.82;1788081;78;21193;-61
2021/03/18 03:15:56;;;;;;;10.83;1.60;;;;;;;2.42;65.89;98812.87;1804610;78;21200;-61
2021/03/18 03:18:23;;;;;;;7.93;1.57;;;;;;;2.42;65.92;98818.19;1783936;78;21186;-60
2021/03/18 03:20:52;;;;;;;3.80;1.73;;;;;;;2.41;66.10;98820.43;1774412;78;21095;-61
2021/03/18 03:23:21;;;;;;;9.20;1.77;;;;;;;2.42;66.16;98821.30;1765280;80;21781;-61
2021/03/18 03:25:49;;;;;;;4.00;1.27;;;;;;;2.41;66.20;98819.56;1777640;79;21640;-61
2021/03/18 03:28:16;;;;;;;8.50;1.87;;;;;;;2.41;66.36;98823.09;1776223;79;22695;-61
2021/03/18 03:30:44;;;;;;;6.40;1.87;;;;;;;2.40;66.45;98825.78;1782525;78;21197;-62
2021/03/18 03:33:11;;;;;;;6.63;1.63;;;;;;;2.38;66.50;98828.52;1805330;78;22062;-61
2021/03/18 03:35:39;;;;;;;13.63;2.30;;;;;;;2.37;66.62;98833.41;1808475;78;21203;-61
2021/03/18 03:38:06;;;;;;;4.13;1.40;;;;;;;2.35;66.69;98830.38;1786258;78;22300;-60
2021/03/18 03:40:34;;;;;;;8.60;1.67;;;;;;;2.33;66.77;98834.86;1791273;78;21741;-61
2021/03/18 03:43:02;;;;;;;6.30;1.70;;;;;;;2.31;66.92;98844.64;1799927;78;21179;-61
2021/03/18 03:45:29;;;;;;;7.53;2.07;;;;;;;2.30;67.08;98844.27;1786510;78;21683;-62
2021/03/18 03:47:57;;;;;;;9.47;2.73;;;;;;;2.26;67.15;98844.34;1803408;78;21245;-61
2021/03/18 03:50:27;;;;;;;9.30;1.60;;;;;;;2.21;67.20;98846.73;1807128;78;21202;-62
2021/03/18 03:53:25;;;;;;;5.77;1.43;;;;;;;2.16;67.32;98844.19;1801334;78;22566;-61
2021/03/18 03:56:11;;;;;;;5.83;1.07;;;;;;;2.13;67.45;98850.91;1788833;78;21198;-62
2021/03/18 03:58:55;;;;;;;8.77;1.30;;;;;;;2.12;67.56;98849.19;1786429;78;21178;-64
2021/03/18 04:01:32;;;;;;;5.10;1.20;;;;;;;2.09;67.68;98849.72;1779122;78;21191;-61
2021/03/18 04:04:14;;;;;;;7.20;1.30;;;;;;;2.04;67.91;98853.81;1780029;78;21115;-62
2021/03/18 04:06:42;;;;;;;6.27;1.70;;;;;;;1.99;68.15;98850.89;1774487;80;21605;-62
2021/03/18 04:09:14;;;;;;;5.10;1.40;;;;;;;1.96;68.37;98854.48;1775093;79;21202;-62
2021/03/18 04:11:42;;;;;;;6.73;1.30;;;;;;;1.95;68.60;98861.19;1779894;78;21171;-62
2021/03/18 04:14:12;;;;;;;8.50;2.23;;;;;;;1.93;69.07;98853.27;1784758;78;21607;-61
2021/03/18 04:16:43;;;;;;;10.23;1.50;;;;;;;1.90;69.51;98859.52;1786823;78;21107;-62
2021/03/18 04:19:17;;;;;;;8.90;1.63;;;;;;;1.88;69.95;98861.80;1800063;77;21571;-62
2021/03/18 04:21:48;;;;;;;9.33;1.77;;;;;;;1.86;70.42;98861.86;1781324;78;21167;-62
2021/03/18 04:24:15;;;;;;;6.50;2.20;;;;;;;1.86;70.76;98861.86;1806135;78;21166;-61
2021/03/18 04:26:43;;;;;;;9.17;2.33;;;;;;;1.86;70.97;98862.31;1804899;78;21629;-62
2021/03/18 04:29:10;;;;;;;9.13;3.77;;;;;;;1.89;71.30;98871.50;1804142;78;21194;-62
2021/03/18 04:31:39;;;;;;;8.83;2.30;;;;;;;1.88;71.52;98866.64;1766676;78;22495;-62
2021/03/18 04:34:08;;;;;;;9.87;2.60;;;;;;;1.90;71.84;98859.98;1801255;78;21210;-62
2021/03/18 04:36:35;;;;;;;9.77;2.20;;;;;;;1.89;72.08;98865.73;1804363;78;21088;-62
2021/03/18 04:39:04;;;;;;;8.47;2.67;;;;;;;1.93;72.36;98865.20;1803010;78;21079;-62
2021/03/18 04:41:33;;;;;;;6.13;1.93;;;;;;;1.96;72.58;98869.09;1789484;78;21494;-62
2021/03/18 04:44:01;;;;;;;6.33;2.17;;;;;;;2.00;72.81;98873.41;1804649;78;21518;-61
2021/03/18 04:46:29;;;;;;;9.03;2.67;;;;;;;2.02;72.93;98875.58;1786701;78;21299;-61
2021/03/18 04:48:58;;;;;;;10.77;3.60;;;;;;;2.02;73.18;98874.70;1779553;78;21554;-62
2021/03/18 04:51:25;;;;;;;12.83;3.83;;;;;;;2.03;73.46;98876.45;1770669;78;21159;-62
2021/03/18 04:53:54;;;;;;;9.47;3.20;;;;;;;2.02;73.54;98877.36;1806046;78;21197;-62
2021/03/18 04:56:21;;;;;;;10.70;3.47;;;;;;;2.03;73.82;98875.99;1791961;78;21438;-61
2021/03/18 04:58:48;;;;;;;11.47;3.40;;;;;;;2.03;73.97;98878.64;1806686;78;21616;-61
2021/03/18 05:01:17;;;;;;;8.30;2.93;;;;;;;2.06;74.11;98885.63;1767235;80;21159;-61
2021/03/18 05:03:45;;;;;;;10.27;3.50;;;;;;;2.07;74.30;98886.92;1775190;78;21202;-61
2021/03/18 05:06:13;;;;;;;7.80;3.30;;;;;;;2.04;74.46;98887.00;1803887;78;21218;-62
2021/03/18 05:08:41;;;;;;;9.50;4.40;;;;;;;2.05;74.65;98889.19;1805914;78;21199;-62
2021/03/18 05:11:09;;;;;;;17.47;4.73;;;;;;;2.09;74.82;98886.89;1804887;78;21194;-61
2021/03/18 05:13:36;;;;;;;8.57;4.27;;;;;;;2.09;74.99;98887.76;1786817;78;21106;-62
2021/03/18 05:16:04;;;;;;;10.87;3.90;;;;;;;2.11;75.03;98889.05;1802269;78;21204;-60
2021/03/18 05:18:32;;;;;;;11.07;3.67;;;;;;;2.14;75.20;98896.45;1805535;78;21075;-59
2021/03/18 05:21:02;;;;;;;12.40;4.67;;;;;;;2.21;75.60;98893.19;1797767;78;21340;-60
2021/03/18 05:23:29;;;;;;;13.53;4.03;;;;;;;2.27;75.46;98894.34;1810291;78;21115;-60
2021/03/18 05:25:56;;;;;;;12.53;4.73;;;;;;;2.32;75.55;98899.05;1768716;79;21161;-62
2021/03/18 05:28:23;;;;;;;7.73;3.30;;;;;;;2.36;75.57;98899.39;1793484;78;21086;-62
2021/03/18 05:30:51;;;;;;;10.07;4.77;;;;;;;2.37;75.53;98905.12;1790653;78;21420;-60
2021/03/18 05:33:18;;;;;;;8.43;3.57;;;;;;;2.36;75.60;98894.53;1774755;79;22288;-58
2021/03/18 05:35:46;;;;;;;22.87;5.30;;;;;;;2.41;75.78;98905.88;1809442;78;20976;-60
2021/03/18 05:38:14;;;;;;;7.07;4.00;;;;;;;2.41;75.62;98908.08;1775740;78;21686;-60
2021/03/18 05:40:44;;;;;;;9.63;3.53;;;;;;;2.44;75.77;98916.42;1771249;78;21106;-60
2021/03/18 05:43:12;;;;;;;13.87;4.20;;;;;;;2.51;75.73;98917.53;1772195;80;21179;-59
2021/03/18 05:45:39;;;;;;;14.70;4.60;;;;;;;2.58;75.63;98916.89;1784437;78;21552;-60
2021/03/18 05:48:07;;;;;;;8.13;4.23;;;;;;;2.63;75.52;98922.95;1780108;78;21523;-62
2021/03/18 05:50:37;;;;;;;15.63;5.50;;;;;;;2.68;75.36;98922.34;1805049;78;21613;-62
2021/03/18 05:53:05;;;;;;;11.63;4.80;;;;;;;2.66;75.25;98923.72;1778710;78;20980;-61
2021/03/18 05:55:33;;;;;;;13.73;4.40;;;;;;;2.68;75.25;98928.12;1803735;78;21103;-63
2021/03/18 05:58:00;;;;;;;10.80;4.33;;;;;;;2.70;75.14;98927.63;1806724;78;21445;-63
2021/03/18 06:00:29;;;;;;;16.57;4.23;;;;;;;2.71;75.11;98926.25;1804639;78;21425;-62
2021/03/18 06:02:56;;;;;;;9.43;4.17;;;;;;;2.73;75.03;98929.71;1799419;78;21645;-63
2021/03/18 06:05:24;;;;;;;11.93;3.50;;;;;;;2.72;74.89;98935.97;1783004;78;21162;-62
2021/03/18 06:07:51;;;;;;;6.20;3.53;;;;;;;2.73;74.94;98938.14;1788644;78;22122;-61
2021/03/18 06:10:21;;;;;;;9.13;4.43;;;;;;;2.76;74.82;98939.39;1798916;78;21285;-62
2021/03/18 06:12:50;;;;;;;11.17;5.20;;;;;;;2.76;74.68;98942.92;1802212;78;21211;-61
2021/03/18 06:15:18;;;;;;;12.53;4.80;;;;;;;2.76;74.61;98938.06;1806615;78;21178;-61
2021/03/18 06:17:45;;;;;;;10.83;4.80;;;;;;;2.78;74.45;98941.09;1773836;78;21649;-62
2021/03/18 06:20:19;;;;;;;14.87;4.03;;;;;;;2.81;74.45;98939.66;1785129;78;21119;-63
2021/03/18 06:22:48;;;;;;;10.37;3.83;;;;;;;2.83;74.19;98944.47;1808057;78;21412;-60
2021/03/18 06:25:29;;;;;;;11.43;4.60;;;;;;;2.86;74.23;98946.17;1806129;78;21211;-62
2021/03/18 06:28:21;;;;;;;11.80;3.90;;;;;;;2.91;73.86;98950.88;1786594;78;21613;-62
2021/03/18 06:31:08;;;;;;;9.40;3.27;;;;;;;2.91;73.65;98945.11;1773028;78;21175;-61
2021/03/18 06:33:45;;;;;;;10.77;4.13;;;;;;;2.93;73.64;98954.38;1787118;78;21460;-62
2021/03/18 06:36:26;;;;;;;13.13;4.47;;;;;;;2.97;73.59;98951.59;1773895;80;21979;-63
2021/03/18 06:39:06;;;;;;;13.23;4.03;;;;;;;3.04;73.29;98951.81;1805920;78;21421;-63
2021/03/18 06:41:39;;;;;;;14.87;5.30;;;;;;;3.12;72.96;98949.37;1776767;78;21304;-63
2021/03/18 06:44:21;;;;;;;14.23;3.47;;;;;;;3.23;72.91;98948.59;1808212;77;21118;-63
2021/03/18 06:46:49;;;;;;;8.17;4.53;;;;;;;3.33;72.73;98952.22;1808073;78;21433;-61
2021/03/18 06:49:19;;;;;;;13.90;4.20;;;;;;;3.40;71.78;98949.77;1801707;78;21343;-61
2021/03/18 06:52:12;;;;;;;10.67;4.30;;;;;;;3.43;71.56;98949.68;1807849;78;21234;-59
2021/03/18 06:54:43;;;;;;;10.43;4.67;;;;;;;3.48;71.65;98941.56;1805203;77;21655;-62
2021/03/18 06:57:11;;;;;;;11.47;4.43;;;;;;;3.54;70.96;98949.80;1769127;80;21108;-61
2021/03/18 06:59:41;;;;;;;14.00;4.33;;;;;;;3.58;70.74;98938.98;1779519;78;21106;-61
2021/03/18 07:02:14;;;;;;;16.30;4.87;;;;;;;3.61;70.71;98943.34;1773201;78;21391;-62
2021/03/18 07:04:45;;;;;;;10.00;4.10;;;;;;;3.57;70.77;98943.05;1787349;79;21250;-62
2021/03/18 07:07:15;;;;;;;8.93;3.73;;;;;;;3.56;71.04;98939.98;1806395;78;21384;-61
2021/03/18 07:09:46;;;;;;;11.37;4.10;;;;;;;3.60;70.47;98942.94;1807020;78;21186;-62
2021/03/18 07:12:16;;;;;;;10.93;4.80;;;;;;;3.62;70.50;98947.30;1804689;78;21135;-62
2021/03/18 07:14:48;;;;;;;11.73;4.03;;;;;;;3.68;70.22;98944.88;1790743;78;22203;-61
2021/03/18 07:17:33;;;;;;;6.87;3.43;;;;;;;3.70;69.54;98950.57;1812058;78;21497;-60
2021/03/18 07:20:14;;;;;;;10.97;4.20;;;;;;;3.71;69.63;98952.31;1787460;79;21129;-61
2021/03/18 07:22:51;;;;;;;11.57;4.13;;;;;;;3.72;69.68;98951.86;1808473;78;21674;-61
2021/03/18 07:25:24;;;;;;;11.13;4.20;;;;;;;3.74;69.81;98952.69;1791194;78;21198;-62
2021/03/18 07:27:55;;;;;;;10.57;4.20;;;;;;;3.77;69.64;98951.23;1806008;78;22113;-61
2021/03/18 07:30:29;;;;;;;13.57;3.70;;;;;;;3.78;69.53;98951.19;1806086;77;21190;-60
2021/03/18 07:32:57;;;;;;;17.80;3.60;;;;;;;3.78;68.43;98944.53;1811634;77;21138;-62
2021/03/18 07:35:25;;;;;;;8.30;3.13;;;;;;;3.80;68.46;98948.02;1814183;78;21189;-63
2021/03/18 07:37:53;;;;;;;14.10;2.57;;;;;;;3.85;68.24;98950.51;1788627;78;21585;-61
2021/03/18 07:40:22;;;;;;;10.67;3.33;;;;;;;3.92;68.13;98947.17;1813770;78;21036;-61
2021/03/18 07:42:50;;;;;;;5.97;2.50;;;;;;;3.98;67.75;98942.98;1812461;78;21610;-60
2021/03/18 07:45:19;;;;;;;8.37;2.10;;;;;;;3.99;67.07;98950.06;1809323;78;21190;-60
2021/03/18 07:47:47;;;;;;;14.93;2.20;;;;;;;4.01;67.20;98946.86;1810488;78;21181;-61
2021/03/18 07:50:18;;;;;;;8.30;3.00;;;;;;;4.03;66.59;98947.22;1809119;78;21090;-61
2021/03/18 07:52:48;;;;;;;14.40;4.77;;;;;;;4.01;66.47;98945.06;1811377;78;22244;-62
2021/03/18 07:55:17;;;;;;;8.23;3.83;;;;;;;3.98;66.54;98945.19;1766934;78;21198;-63
2021/03/18 07:57:49;;;;;;;15.40;4.03;;;;;;;3.99;66.82;98948.73;1812974;78;21216;-62
2021/03/18 08:00:24;;;;;;;15.63;3.20;;;;;;;4.05;66.94;98941.84;1810316;78;21118;-63
2021/03/18 08:02:52;;;;;;;8.93;3.07;;;;;;;4.15;66.78;98942.81;1792607;78;21735;-62
2021/03/18 08:05:38;;;;;;;7.00;1.93;;;;;;;4.26;66.54;98945.53;1794860;78;21427;-60
2021/03/18 08:08:06;;;;;;;11.12;2.00;;;;;;;4.34;65.84;98946.16;1793275;79;21110;-63
2021/03/18 08:10:39;;;;;;;11.80;2.10;;;;;;;4.32;65.62;98944.88;1785957;78;21146;-60
2021/03/18 08:13:06;;;;;;;9.80;1.70;;;;;;;4.33;65.91;98953.28;1777672;79;21123;-61
2021/03/18 08:15:43;;;;;;;4.77;1.83;;;;;;;4.35;64.87;98947.87;1782526;78;21084;-62
2021/03/18 08:18:22;;;;;;;5.80;1.50;;;;;;;4.25;65.16;98951.81;1781541;78;21276;-61
2021/03/18 08:20:57;;;;;;;6.20;1.30;;;;;;;4.22;65.46;98951.45;1790555;79;21127;-62
2021/03/18 08:23:34;;;;;;;6.37;2.30;;;;;;;4.23;65.22;98952.32;1816381;78;21131;-62
2021/03/18 08:26:11;;;;;;;17.33;2.23;;;;;;;4.23;65.25;98961.19;1793563;78;21114;-62
2021/03/18 08:28:59;;;;;;;13.67;2.80;;;;;;;4.22;65.32;98958.11;1807283;78;21107;-62
2021/03/18 08:31:36;;;;;;;7.40;2.00;;;;;;;4.21;65.35;98955.03;1792072;78;21203;-61
2021/03/18 08:34:04;;;;;;;6.70;1.83;;;;;;;4.22;65.44;98963.44;1774462;79;21116;-63
2021/03/18 08:36:41;;;;;;;14.00;1.63;;;;;;;4.23;65.30;98966.52;1783945;78;21458;-62
2021/03/18 08:39:11;;;;;;;8.77;1.80;;;;;;;4.21;65.02;98959.03;1781042;78;21707;-62
2021/03/18 08:41:42;;;;;;;13.73;2.23;;;;;;;4.18;64.88;98960.00;1786960;78;21092;-61
2021/03/18 08:44:34;;;;;;;7.30;1.37;;;;;;;4.21;64.88;98963.02;1812643;77;22083;-63
2021/03/18 08:47:05;;;;;;;8.00;1.40;;;;;;;4.22;64.13;98963.44;1783813;78;21166;-62
2021/03/18 08:49:45;;;;;;;5.57;1.60;;;;;;;4.21;64.05;98960.82;1788422;79;21612;-63
2021/03/18 08:52:16;;;;;;;6.57;2.20;;;;;;;4.22;63.93;98960.77;1787582;79;21529;-61
2021/03/18 08:54:51;;;;;;;7.40;2.20;;;;;;;4.29;63.93;98964.08;1786205;79;21103;-61
2021/03/18 08:57:29;;;;;;;6.13;2.13;;;;;;;4.32;63.21;98963.53;1783115;79;21633;-63
2021/03/18 09:00:13;;;;;;;10.33;2.00;;;;;;;4.33;63.42;98970.59;1785952;79;21622;-63
2021/03/18 09:02:42;;;;;;;7.07;1.73;;;;;;;4.35;63.60;98964.73;1756768;79;21138;-61
2021/03/18 09:05:16;;;;;;;8.50;2.10;;;;;;;4.45;63.14;98967.94;1784997;79;21138;-63
2021/03/18 09:07:47;;;;;;;9.33;2.30;;;;;;;4.48;62.62;98961.17;1785209;79;21539;-63
2021/03/18 09:10:21;;;;;;;5.23;1.70;;;;;;;4.50;62.79;98960.66;1785572;79;21887;-63
2021/03/18 09:12:59;;;;;;;8.20;1.20;;;;;;;4.59;62.89;98961.66;1786280;78;21509;-62
2021/03/18 09:15:36;;;;;;;4.13;1.37;;;;;;;4.68;61.91;98963.13;1806749;78;21248;-62
2021/03/18 09:18:22;;;;;;;8.50;1.70;;;;;;;4.72;61.38;98962.06;1800913;78;21155;-63
2021/03/18 09:21:02;;;;;;;6.90;1.37;;;;;;;4.77;61.29;98958.75;1806024;78;21182;-63
2021/03/18 09:23:32;;;;;;;5.80;1.00;;;;;;;4.85;61.31;98967.33;1780286;79;21205;-62
2021/03/18 09:26:03;;;;;;;5.97;1.20;;;;;;;4.93;61.40;98963.95;1794022;78;22200;-62
2021/03/18 09:28:39;;;;;;;8.77;1.50;;;;;;;5.01;61.45;98964.52;1780151;78;21549;-61
2021/03/18 09:31:07;;;;;;;6.80;1.57;;;;;;;5.07;61.11;98962.94;1786051;78;21609;-62
2021/03/18 09:33:41;;;;;;;11.40;1.77;;;;;;;5.06;61.54;98964.33;1772434;78;21181;-63
2021/03/18 09:36:20;;;;;;;3.85;1.17;;;;;;;5.11;61.34;98969.88;1785804;78;21421;-63
2021/03/18 09:39:10;;;;;;;6.80;0.97;;;;;;;5.12;61.36;98966.75;1775311;80;21164;-63
2021/03/18 09:41:45;;;;;;;6.07;1.10;;;;;;;5.12;61.89;98966.29;1806072;78;21194;-63
2021/03/18 09:44:15;;;;;;;6.67;1.27;;;;;;;5.16;62.19;98968.39;1806039;78;22004;-63
2021/03/18 09:46:52;;;;;;;2.00;0.97;;;;;;;5.15;62.55;98966.18;1782519;78;21694;-63
2021/03/18 09:49:36;;;;;;;6.27;1.50;;;;;;;5.15;62.86;98968.84;1806621;78;21661;-62
2021/03/18 09:52:18;;;;;;;5.00;1.10;;;;;;;5.14;63.42;98974.23;1808280;78;21167;-61
2021/03/18 09:54:49;;;;;;;6.93;1.10;;;;;;;5.07;63.54;98971.41;1779205;78;21158;-61
2021/03/18 09:57:17;;;;;;;6.07;1.53;;;;;;;4.94;63.96;98976.32;1753756;79;21107;-63
2021/03/18 09:59:51;;;;;;;3.07;1.30;;;;;;;4.83;64.34;98976.75;1782757;78;21606;-62
2021/03/18 10:02:28;;;;;;;2.95;1.10;;;;;;;4.78;64.62;98977.36;1806460;78;21213;-63
2021/03/18 10:04:57;;;;;;;4.00;1.20;;;;;;;4.78;64.21;98979.16;1779777;78;21158;-64
2021/03/18 10:07:29;;;;;;;3.50;1.20;;;;;;;4.80;63.74;98986.64;1800840;78;21746;-64
2021/03/18 10:10:00;;;;;;;7.60;1.40;;;;;;;4.78;63.73;98980.49;1785437;78;21605;-63
2021/03/18 10:12:29;;;;;;;7.17;0.97;;;;;;;4.79;63.96;98979.11;1787210;78;21222;-63
2021/03/18 10:15:10;;;;;;;4.43;1.17;;;;;;;4.86;63.51;98978.41;1753318;78;22060;-64
2021/03/18 10:17:41;;;;;;;5.27;1.20;;;;;;;4.91;63.03;98973.80;1807181;78;21875;-64
2021/03/18 10:20:18;;;;;;;2.87;0.80;;;;;;;4.95;62.47;98986.06;1789380;78;21166;-62
2021/03/18 10:22:57;;;;;;;2.03;1.00;;;;;;;4.93;61.62;98982.12;1806977;78;21570;-63
2021/03/18 10:25:28;;;;;;;1.60;0.80;;;;;;;4.91;61.62;98980.46;1783712;78;21444;-64
2021/03/18 10:28:09;;;;;;;4.50;0.80;;;;;;;4.97;60.62;98976.22;1806788;78;22714;-63
2021/03/18 10:30:50;;;;;;;5.00;0.97;;;;;;;4.98;59.94;98972.63;1806382;78;21385;-61
2021/03/18 10:33:25;;;;;;;4.10;0.90;;;;;;;4.93;60.39;98976.78;1804957;78;21146;-64
2021/03/18 10:36:00;;;;;;;4.27;0.90;;;;;;;4.90;60.64;98978.72;1774217;78;21175;-62
2021/03/18 10:38:38;;;;;;;6.90;1.20;;;;;;;4.91;60.74;98983.12;1804609;78;21126;-62
2021/03/18 10:41:13;;;;;;;6.73;0.90;;;;;;;4.92;60.73;98982.20;1800851;77;21170;-63
2021/03/18 10:43:44;;;;;;;7.30;1.03;;;;;;;4.90;60.99;98988.92;1800319;77;21191;-62
2021/03/18 10:46:15;;;;;;;4.23;1.37;;;;;;;4.90;61.29;98990.72;1794425;77;21199;-61
2021/03/18 10:48:49;;;;;;;4.43;1.17;;;;;;;4.86;62.48;98991.28;1803166;77;21127;-62
2021/03/18 10:51:18;;;;;;;7.77;1.00;;;;;;;4.73;63.19;98999.34;1787442;78;21099;-65
2021/03/18 10:53:48;;;;;;;4.07;0.80;;;;;;;4.63;63.36;99000.59;1774328;78;21125;-62
2021/03/18 10:56:26;;;;;;;3.23;0.90;;;;;;;4.55;63.15;99000.00;1805150;78;21135;-61
2021/03/18 10:58:55;;;;;;;5.57;1.03;;;;;;;4.49;63.35;98994.90;1773402;78;21115;-61
2021/03/18 11:01:26;;;;;;;5.27;1.00;;;;;;;4.48;63.46;99006.02;1777487;78;21531;-63
2021/03/18 11:04:04;;;;;;;2.63;1.00;;;;;;;4.43;63.65;98999.09;1778252;78;21195;-62
2021/03/18 11:06:33;;;;;;;4.00;1.20;;;;;;;4.42;64.06;99000.88;1804344;77;21158;-63
2021/03/18 11:11:37;;;;;;;3.52;1.95;;;;;;;4.44;64.30;98997.71;1854778;75;28743;-63
2021/03/18 11:14:12;;;;;;;4.73;2.53;;;;;;;4.41;64.46;98999.17;1842041;76;21186;-63
2021/03/18 11:16:40;;;;;;;;;;;;;;;4.44;64.88;98993.71;1843993;76;22203;-62
2021/03/18 11:19:11;;;;;;;3.30;2.40;;;;;;;4.42;65.69;98991.55;1840245;76;20457;-63
2021/03/18 11:21:41;;;;;;;3.23;2.37;;;;;;;4.38;65.76;98990.41;1843565;76;21372;-62
2021/03/18 11:24:15;;;;;;;5.67;2.40;;;;;;;4.41;66.08;98987.64;1845348;76;20956;-62
2021/03/18 11:26:59;;;;;;;5.42;2.83;;;;;;;4.46;66.15;98987.87;1842596;76;20952;-62
2021/03/18 11:29:29;;;;;;;7.73;2.10;;;;;;;4.50;66.13;98984.19;1839030;76;21428;-62
2021/03/18 11:31:57;;;;;;;3.13;2.40;;;;;;;4.55;65.69;98982.67;1840027;76;21423;-63
2021/03/18 11:34:31;;;;;;;3.80;1.70;;;;;;;4.59;65.62;98976.33;1841639;76;21430;-63
2021/03/18 11:37:03;;;;;;;3.97;1.77;;;;;;;4.64;65.37;98976.14;1839412;76;21090;-62
2021/03/18 11:39:31;;;;;;;2.80;1.90;;;;;;;4.71;65.25;98983.86;1838943;76;21071;-63
2021/03/18 11:41:59;;;;;;;3.30;2.50;;;;;;;4.75;64.78;98984.16;1823938;77;22857;-62
2021/03/18 11:44:29;;;;;;;8.00;2.63;;;;;;;4.77;64.77;98981.41;1797919;77;21143;-62
2021/03/18 11:47:04;;;;;;;9.27;2.00;;;;;;;4.78;64.60;98980.03;1796371;77;21730;-63
2021/03/18 11:49:32;;;;;;;5.60;1.57;;;;;;;4.79;64.61;98978.23;1796839;77;21099;-63
2021/03/18 11:52:00;;;;;;;3.70;1.10;;;;;;;4.79;64.72;98980.44;1800568;77;21115;-62
2021/03/18 11:54:28;;;;;;;6.87;1.43;;;;;;;4.82;64.19;98983.00;1795604;77;21374;-62
2021/03/18 11:56:55;;;;;;;2.53;1.30;;;;;;;4.81;64.21;98977.72;1795132;77;21172;-63
2021/03/18 11:59:24;;;;;;;7.87;2.03;;;;;;;4.78;63.30;98985.83;1796773;77;21112;-63
2021/03/18 12:01:51;;;;;;;3.03;1.10;;;;;;;4.75;63.29;98976.16;1796484;77;21198;-64
2021/03/18 12:04:20;;;;;;;1.90;1.20;;;;;;;4.78;63.12;98986.70;1795261;77;21637;-62
2021/03/18 12:09:20;;;;;;;1.10;0.80;;;;;;;4.87;63.74;98979.69;1840257;76;26570;-63